Aviation Digital Data Service (ADDS)

Output produced by METARs form (0748 UTC 18 February 2019)
found at http://www.aviationweather.gov/metar/data/
 
METAR text: UHWW 180730Z 19005MPS 9999 NSC 05/M17 Q1020 R25L/0///70 NOSIG RMK QFE764
Conditions at: UHWW (VLADIVOSTOK , RU) observed 0730 UTC 18 February 2019
Temperature: 5.0°C (41°F)
Dewpoint: -17.0°C ( 1°F) [RH = 19%]
Pressure (altimeter): 30.12 inches Hg (1020.0 mb)
Winds: from the S (190 degrees) at 12 MPH (10 knots; 5.1 m/s)
Visibility: 6 or more miles (10+ km)
Ceiling: at least 12,000 feet AGL
Clouds: sky clear below 12,000 feet AGL
Weather: no significant weather observed at this time

METAR text: UHWW 180700Z 19004MPS 9999 NSC 05/M18 Q1020 R25L/0///70 NOSIG RMK QFE764
Conditions at: UHWW (VLADIVOSTOK , RU) observed 0700 UTC 18 February 2019
Temperature: 5.0°C (41°F)
Dewpoint: -18.0°C (-0°F) [RH = 17%]
Pressure (altimeter): 30.12 inches Hg (1020.0 mb)
Winds: from the S (190 degrees) at 9 MPH (8 knots; 4.1 m/s)
Visibility: 6 or more miles (10+ km)
Ceiling: at least 12,000 feet AGL
Clouds: sky clear below 12,000 feet AGL
Weather: no significant weather observed at this time

METAR text: UHWW 180630Z 20005MPS 9999 NSC 05/M18 Q1020 R25L/0///70 NOSIG RMK QFE764
Conditions at: UHWW (VLADIVOSTOK , RU) observed 0630 UTC 18 February 2019
Temperature: 5.0°C (41°F)
Dewpoint: -18.0°C (-0°F) [RH = 17%]
Pressure (altimeter): 30.12 inches Hg (1020.0 mb)
Winds: from the SSW (200 degrees) at 12 MPH (10 knots; 5.1 m/s)
Visibility: 6 or more miles (10+ km)
Ceiling: at least 12,000 feet AGL
Clouds: sky clear below 12,000 feet AGL
Weather: no significant weather observed at this time

METAR text: UHWW 180600Z 19005MPS 9999 NSC 06/M17 Q1020 R25L/0///70 NOSIG RMK QFE764
Conditions at: UHWW (VLADIVOSTOK , RU) observed 0600 UTC 18 February 2019
Temperature: 6.0°C (43°F)
Dewpoint: -17.0°C ( 1°F) [RH = 17%]
Pressure (altimeter): 30.12 inches Hg (1020.0 mb)
Winds: from the S (190 degrees) at 12 MPH (10 knots; 5.1 m/s)
Visibility: 6 or more miles (10+ km)
Ceiling: at least 12,000 feet AGL
Clouds: sky clear below 12,000 feet AGL
Weather: no significant weather observed at this time

METAR text: UHWW 180530Z 22003MPS 9999 NSC 06/M16 Q1020 R25L/0///70 NOSIG RMK QFE764
Conditions at: UHWW (VLADIVOSTOK , RU) observed 0530 UTC 18 February 2019
Temperature: 6.0°C (43°F)
Dewpoint: -16.0°C ( 3°F) [RH = 19%]
Pressure (altimeter): 30.12 inches Hg (1020.0 mb)
Winds: from the SW (220 degrees) at 7 MPH (6 knots; 3.1 m/s)
Visibility: 6 or more miles (10+ km)
Ceiling: at least 12,000 feet AGL
Clouds: sky clear below 12,000 feet AGL
Weather: no significant weather observed at this time

METAR text: UHWW 180500Z 23002MPS 190V270 9999 NSC 06/M17 Q1021 R25L/0///70 NOSIG RMK QFE764
Conditions at: UHWW (VLADIVOSTOK , RU) observed 0500 UTC 18 February 2019
Temperature: 6.0°C (43°F)
Dewpoint: -17.0°C ( 1°F) [RH = 17%]
Pressure (altimeter): 30.15 inches Hg (1021.0 mb)
Winds: from the SW (230 degrees) at 5 MPH (4 knots; 2.1 m/s)
Visibility: 6 or more miles (10+ km)
Ceiling: at least 12,000 feet AGL
Clouds: sky clear below 12,000 feet AGL
Weather: no significant weather observed at this time

METAR text: UHWW 180430Z 20002MPS 140V260 9999 NSC 06/M17 Q1021 R25L/0///70 NOSIG RMK QFE765
Conditions at: UHWW (VLADIVOSTOK , RU) observed 0430 UTC 18 February 2019
Temperature: 6.0°C (43°F)
Dewpoint: -17.0°C ( 1°F) [RH = 17%]
Pressure (altimeter): 30.15 inches Hg (1021.0 mb)
Winds: from the SSW (200 degrees) at 5 MPH (4 knots; 2.1 m/s)
Visibility: 6 or more miles (10+ km)
Ceiling: at least 12,000 feet AGL
Clouds: sky clear below 12,000 feet AGL
Weather: no significant weather observed at this time

METAR text: UHWW 180400Z 24002MPS 210V300 9999 NSC 05/M16 Q1022 R25L/0///70 NOSIG RMK QFE765
Conditions at: UHWW (VLADIVOSTOK , RU) observed 0400 UTC 18 February 2019
Temperature: 5.0°C (41°F)
Dewpoint: -16.0°C ( 3°F) [RH = 20%]
Pressure (altimeter): 30.18 inches Hg (1022.0 mb)
Winds: from the WSW (240 degrees) at 5 MPH (4 knots; 2.1 m/s)
Visibility: 6 or more miles (10+ km)
Ceiling: at least 12,000 feet AGL
Clouds: sky clear below 12,000 feet AGL
Weather: no significant weather observed at this time

METAR text: UHWW 180330Z 24003MPS 9999 NSC 04/M17 Q1022 R25L/0///70 NOSIG RMK QFE765
Conditions at: UHWW (VLADIVOSTOK , RU) observed 0330 UTC 18 February 2019
Temperature: 4.0°C (39°F)
Dewpoint: -17.0°C ( 1°F) [RH = 20%]
Pressure (altimeter): 30.18 inches Hg (1022.0 mb)
Winds: from the WSW (240 degrees) at 7 MPH (6 knots; 3.1 m/s)
Visibility: 6 or more miles (10+ km)
Ceiling: at least 12,000 feet AGL
Clouds: sky clear below 12,000 feet AGL
Weather: no significant weather observed at this time

METAR text: UHWW 180300Z 22003MPS 180V270 9999 NSC 04/M17 Q1023 R25L/0///70 NOSIG RMK QFE766
Conditions at: UHWW (VLADIVOSTOK , RU) observed 0300 UTC 18 February 2019
Temperature: 4.0°C (39°F)
Dewpoint: -17.0°C ( 1°F) [RH = 20%]
Pressure (altimeter): 30.21 inches Hg (1023.0 mb)
Winds: from the SW (220 degrees) at 7 MPH (6 knots; 3.1 m/s)
Visibility: 6 or more miles (10+ km)
Ceiling: at least 12,000 feet AGL
Clouds: sky clear below 12,000 feet AGL
Weather: no significant weather observed at this time

METAR text: UHWW 180230Z 23002MPS 180V270 9999 NSC 03/M16 Q1023 R25L/0///70 NOSIG RMK QFE766
Conditions at: UHWW (VLADIVOSTOK , RU) observed 0230 UTC 18 February 2019
Temperature: 3.0°C (37°F)
Dewpoint: -16.0°C ( 3°F) [RH = 23%]
Pressure (altimeter): 30.21 inches Hg (1023.0 mb)
Winds: from the SW (230 degrees) at 5 MPH (4 knots; 2.1 m/s)
Visibility: 6 or more miles (10+ km)
Ceiling: at least 12,000 feet AGL
Clouds: sky clear below 12,000 feet AGL
Weather: no significant weather observed at this time

METAR text: UHWW 180200Z VRB01MPS 9999 NSC 02/M15 Q1023 R25L/0///70 NOSIG RMK QFE766
Conditions at: UHWW (VLADIVOSTOK , RU) observed 0200 UTC 18 February 2019
Temperature: 2.0°C (36°F)
Dewpoint: -15.0°C ( 5°F) [RH = 27%]
Pressure (altimeter): 30.21 inches Hg (1023.0 mb)
Winds: variable direction winds at 2 MPH (2 knots; 1.0 m/s)
Visibility: 6 or more miles (10+ km)
Ceiling: at least 12,000 feet AGL
Clouds: sky clear below 12,000 feet AGL
Weather: no significant weather observed at this time

METAR text: UHWW 180130Z VRB01MPS 9999 NSC 00/M15 Q1023 R25L/0///70 NOSIG RMK QFE766
Conditions at: UHWW (VLADIVOSTOK , RU) observed 0130 UTC 18 February 2019
Temperature: 0.0°C (32°F)
Dewpoint: -15.0°C ( 5°F) [RH = 31%]
Pressure (altimeter): 30.21 inches Hg (1023.0 mb)
Winds: variable direction winds at 2 MPH (2 knots; 1.0 m/s)
Visibility: 6 or more miles (10+ km)
Ceiling: at least 12,000 feet AGL
Clouds: sky clear below 12,000 feet AGL
Weather: no significant weather observed at this time

METAR text: UHWW 180100Z 09002MPS 9999 NSC M02/M15 Q1023 R25L/0///70 NOSIG RMK QFE766
Conditions at: UHWW (VLADIVOSTOK , RU) observed 0100 UTC 18 February 2019
Temperature: -2.0°C (28°F)
Dewpoint: -15.0°C ( 5°F) [RH = 36%]
Pressure (altimeter): 30.21 inches Hg (1023.0 mb)
Winds: from the E (90 degrees) at 5 MPH (4 knots; 2.1 m/s)
Visibility: 6 or more miles (10+ km)
Ceiling: at least 12,000 feet AGL
Clouds: sky clear below 12,000 feet AGL
Weather: no significant weather observed at this time

METAR text: UHWW 180030Z 08002MPS 9999 NSC M04/M14 Q1023 R25L/0///70 NOSIG RMK QFE766
Conditions at: UHWW (VLADIVOSTOK , RU) observed 0030 UTC 18 February 2019
Temperature: -4.0°C (25°F)
Dewpoint: -14.0°C ( 7°F) [RH = 46%]
Pressure (altimeter): 30.21 inches Hg (1023.0 mb)
Winds: from the E (80 degrees) at 5 MPH (4 knots; 2.1 m/s)
Visibility: 6 or more miles (10+ km)
Ceiling: at least 12,000 feet AGL
Clouds: sky clear below 12,000 feet AGL
Weather: no significant weather observed at this time

METAR text: UHWW 180000Z 05001MPS 9999 NSC M09/M14 Q1023 R25L/0///70 NOSIG RMK QFE766
Conditions at: UHWW (VLADIVOSTOK , RU) observed 0000 UTC 18 February 2019
Temperature: -9.0°C (16°F)
Dewpoint: -14.0°C ( 7°F) [RH = 67%]
Pressure (altimeter): 30.21 inches Hg (1023.0 mb)
Winds: from the NE (50 degrees) at 2 MPH (2 knots; 1.0 m/s)
Visibility: 6 or more miles (10+ km)
Ceiling: at least 12,000 feet AGL
Clouds: sky clear below 12,000 feet AGL
Weather: no significant weather observed at this time

METAR text: UHWW 172330Z 03001MPS 9999 NSC M12/M16 Q1023 R25L/0///70 NOSIG RMK QFE766
Conditions at: UHWW (VLADIVOSTOK , RU) observed 2330 UTC 17 February 2019
Temperature: -12.0°C (10°F)
Dewpoint: -16.0°C ( 3°F) [RH = 72%]
Pressure (altimeter): 30.21 inches Hg (1023.0 mb)
Winds: from the NNE (30 degrees) at 2 MPH (2 knots; 1.0 m/s)
Visibility: 6 or more miles (10+ km)
Ceiling: at least 12,000 feet AGL
Clouds: sky clear below 12,000 feet AGL
Weather: no significant weather observed at this time

METAR text: UHWW 172300Z 03002MPS 9999 NSC M15/M19 Q1023 R25L/0///70 NOSIG RMK QFE766
Conditions at: UHWW (VLADIVOSTOK , RU) observed 2300 UTC 17 February 2019
Temperature: -15.0°C ( 5°F)
Dewpoint: -19.0°C (-2°F) [RH = 71%]
Pressure (altimeter): 30.21 inches Hg (1023.0 mb)
Winds: from the NNE (30 degrees) at 5 MPH (4 knots; 2.1 m/s)
Visibility: 6 or more miles (10+ km)
Ceiling: at least 12,000 feet AGL
Clouds: sky clear below 12,000 feet AGL
Weather: no significant weather observed at this time

METAR text: UHWW 172230Z 13001MPS 9999 NSC M15/M19 Q1022 R25L/0///70 NOSIG RMK QFE765
Conditions at: UHWW (VLADIVOSTOK , RU) observed 2230 UTC 17 February 2019
Temperature: -15.0°C ( 5°F)
Dewpoint: -19.0°C (-2°F) [RH = 71%]
Pressure (altimeter): 30.18 inches Hg (1022.0 mb)
Winds: from the SE (130 degrees) at 2 MPH (2 knots; 1.0 m/s)
Visibility: 6 or more miles (10+ km)
Ceiling: at least 12,000 feet AGL
Clouds: sky clear below 12,000 feet AGL
Weather: no significant weather observed at this time

METAR text: UHWW 172200Z 01001MPS 9999 NSC M16/M19 Q1022 R25L/0///70 NOSIG RMK QFE765
Conditions at: UHWW (VLADIVOSTOK , RU) observed 2200 UTC 17 February 2019
Temperature: -16.0°C ( 3°F)
Dewpoint: -19.0°C (-2°F) [RH = 78%]
Pressure (altimeter): 30.18 inches Hg (1022.0 mb)
Winds: from the N (10 degrees) at 2 MPH (2 knots; 1.0 m/s)
Visibility: 6 or more miles (10+ km)
Ceiling: at least 12,000 feet AGL
Clouds: sky clear below 12,000 feet AGL
Weather: no significant weather observed at this time

METAR text: UHWW 172130Z 04001MPS 9999 NSC M14/M18 Q1022 R25L/0///70 NOSIG RMK QFE765
Conditions at: UHWW (VLADIVOSTOK , RU) observed 2130 UTC 17 February 2019
Temperature: -14.0°C ( 7°F)
Dewpoint: -18.0°C (-0°F) [RH = 72%]
Pressure (altimeter): 30.18 inches Hg (1022.0 mb)
Winds: from the NE (40 degrees) at 2 MPH (2 knots; 1.0 m/s)
Visibility: 6 or more miles (10+ km)
Ceiling: at least 12,000 feet AGL
Clouds: sky clear below 12,000 feet AGL
Weather: no significant weather observed at this time

METAR text: UHWW 172100Z VRB01MPS 9999 NSC M17/M20 Q1022 R25L/0///70 NOSIG RMK QFE765
Conditions at: UHWW (VLADIVOSTOK , RU) observed 2100 UTC 17 February 2019
Temperature: -17.0°C ( 1°F)
Dewpoint: -20.0°C (-4°F) [RH = 77%]
Pressure (altimeter): 30.18 inches Hg (1022.0 mb)
Winds: variable direction winds at 2 MPH (2 knots; 1.0 m/s)
Visibility: 6 or more miles (10+ km)
Ceiling: at least 12,000 feet AGL
Clouds: sky clear below 12,000 feet AGL
Weather: no significant weather observed at this time

METAR text: UHWW 172030Z 00000MPS 9999 NSC M14/M19 Q1021 R25L/0///70 NOSIG RMK QFE765
Conditions at: UHWW (VLADIVOSTOK , RU) observed 2030 UTC 17 February 2019
Temperature: -14.0°C ( 7°F)
Dewpoint: -19.0°C (-2°F) [RH = 66%]
Pressure (altimeter): 30.15 inches Hg (1021.0 mb)
Winds: calm
Visibility: 6 or more miles (10+ km)
Ceiling: at least 12,000 feet AGL
Clouds: sky clear below 12,000 feet AGL
Weather: no significant weather observed at this time

METAR text: UHWW 172000Z 19002MPS 9000 NSC M10/M16 Q1021 R25L/0///70 NOSIG RMK QFE765
Conditions at: UHWW (VLADIVOSTOK , RU) observed 2000 UTC 17 February 2019
Temperature: -10.0°C (14°F)
Dewpoint: -16.0°C ( 3°F) [RH = 61%]
Pressure (altimeter): 30.15 inches Hg (1021.0 mb)
Winds: from the S (190 degrees) at 5 MPH (4 knots; 2.1 m/s)
Visibility: 6 miles ( 9 km)
Ceiling: at least 12,000 feet AGL
Clouds: sky clear below 12,000 feet AGL
Weather: no significant weather observed at this time

METAR text: UHWW 171930Z VRB01MPS 9999 NSC M13/M18 Q1021 R25L/0///70 NOSIG RMK QFE764
Conditions at: UHWW (VLADIVOSTOK , RU) observed 1930 UTC 17 February 2019
Temperature: -13.0°C ( 9°F)
Dewpoint: -18.0°C (-0°F) [RH = 66%]
Pressure (altimeter): 30.15 inches Hg (1021.0 mb)
Winds: variable direction winds at 2 MPH (2 knots; 1.0 m/s)
Visibility: 6 or more miles (10+ km)
Ceiling: at least 12,000 feet AGL
Clouds: sky clear below 12,000 feet AGL
Weather: no significant weather observed at this time

METAR text: UHWW 171900Z 01002MPS 9999 NSC M15/M20 Q1021 R25L/0///70 NOSIG RMK QFE764
Conditions at: UHWW (VLADIVOSTOK , RU) observed 1900 UTC 17 February 2019
Temperature: -15.0°C ( 5°F)
Dewpoint: -20.0°C (-4°F) [RH = 66%]
Pressure (altimeter): 30.15 inches Hg (1021.0 mb)
Winds: from the N (10 degrees) at 5 MPH (4 knots; 2.1 m/s)
Visibility: 6 or more miles (10+ km)
Ceiling: at least 12,000 feet AGL
Clouds: sky clear below 12,000 feet AGL
Weather: no significant weather observed at this time

METAR text: UHWW 171830Z 00000MPS 9999 NSC M14/M19 Q1021 R25L/0///70 NOSIG RMK QFE764
Conditions at: UHWW (VLADIVOSTOK , RU) observed 1830 UTC 17 February 2019
Temperature: -14.0°C ( 7°F)
Dewpoint: -19.0°C (-2°F) [RH = 66%]
Pressure (altimeter): 30.15 inches Hg (1021.0 mb)
Winds: calm
Visibility: 6 or more miles (10+ km)
Ceiling: at least 12,000 feet AGL
Clouds: sky clear below 12,000 feet AGL
Weather: no significant weather observed at this time

METAR text: UHWW 171800Z 02001MPS 9999 NSC M13/M18 Q1021 R25L/0///70 NOSIG RMK QFE764
Conditions at: UHWW (VLADIVOSTOK , RU) observed 1800 UTC 17 February 2019
Temperature: -13.0°C ( 9°F)
Dewpoint: -18.0°C (-0°F) [RH = 66%]
Pressure (altimeter): 30.15 inches Hg (1021.0 mb)
Winds: from the NNE (20 degrees) at 2 MPH (2 knots; 1.0 m/s)
Visibility: 6 or more miles (10+ km)
Ceiling: at least 12,000 feet AGL
Clouds: sky clear below 12,000 feet AGL
Weather: no significant weather observed at this time

METAR text: UHWW 171730Z 36001MPS 9999 NSC M15/M19 Q1021 R25L/0///70 NOSIG RMK QFE764
Conditions at: UHWW (VLADIVOSTOK , RU) observed 1730 UTC 17 February 2019
Temperature: -15.0°C ( 5°F)
Dewpoint: -19.0°C (-2°F) [RH = 71%]
Pressure (altimeter): 30.15 inches Hg (1021.0 mb)
Winds: from the N (360 degrees) at 2 MPH (2 knots; 1.0 m/s)
Visibility: 6 or more miles (10+ km)
Ceiling: at least 12,000 feet AGL
Clouds: sky clear below 12,000 feet AGL
Weather: no significant weather observed at this time

METAR text: UHWW 171700Z 00000MPS 9999 NSC M14/M19 Q1020 R25L/0///70 NOSIG RMK QFE764
Conditions at: UHWW (VLADIVOSTOK , RU) observed 1700 UTC 17 February 2019
Temperature: -14.0°C ( 7°F)
Dewpoint: -19.0°C (-2°F) [RH = 66%]
Pressure (altimeter): 30.12 inches Hg (1020.0 mb)
Winds: calm
Visibility: 6 or more miles (10+ km)
Ceiling: at least 12,000 feet AGL
Clouds: sky clear below 12,000 feet AGL
Weather: no significant weather observed at this time

METAR text: UHWW 171630Z 00000MPS 7000 NSC M12/M18 Q1020 R25L/0///70 NOSIG RMK QFE764
Conditions at: UHWW (VLADIVOSTOK , RU) observed 1630 UTC 17 February 2019
Temperature: -12.0°C (10°F)
Dewpoint: -18.0°C (-0°F) [RH = 61%]
Pressure (altimeter): 30.12 inches Hg (1020.0 mb)
Winds: calm
Visibility: 4 miles ( 7 km)
Ceiling: at least 12,000 feet AGL
Clouds: sky clear below 12,000 feet AGL
Weather: no significant weather observed at this time

METAR text: UHWW 171600Z 00000MPS 9999 NSC M13/M17 Q1020 R25L/0///70 NOSIG RMK QFE764
Conditions at: UHWW (VLADIVOSTOK , RU) observed 1600 UTC 17 February 2019
Temperature: -13.0°C ( 9°F)
Dewpoint: -17.0°C ( 1°F) [RH = 72%]
Pressure (altimeter): 30.12 inches Hg (1020.0 mb)
Winds: calm
Visibility: 6 or more miles (10+ km)
Ceiling: at least 12,000 feet AGL
Clouds: sky clear below 12,000 feet AGL
Weather: no significant weather observed at this time

METAR text: UHWW 171530Z VRB01MPS 9999 NSC M13/M18 Q1020 R07R/0///70 NOSIG RMK QFE764
Conditions at: UHWW (VLADIVOSTOK , RU) observed 1530 UTC 17 February 2019
Temperature: -13.0°C ( 9°F)
Dewpoint: -18.0°C (-0°F) [RH = 66%]
Pressure (altimeter): 30.12 inches Hg (1020.0 mb)
Winds: variable direction winds at 2 MPH (2 knots; 1.0 m/s)
Visibility: 6 or more miles (10+ km)
Ceiling: at least 12,000 feet AGL
Clouds: sky clear below 12,000 feet AGL
Weather: no significant weather observed at this time

METAR text: UHWW 171500Z 27001MPS 9999 NSC M12/M17 Q1019 R25L/0///70 NOSIG RMK QFE763
Conditions at: UHWW (VLADIVOSTOK , RU) observed 1500 UTC 17 February 2019
Temperature: -12.0°C (10°F)
Dewpoint: -17.0°C ( 1°F) [RH = 66%]
Pressure (altimeter): 30.09 inches Hg (1019.0 mb)
Winds: from the W (270 degrees) at 2 MPH (2 knots; 1.0 m/s)
Visibility: 6 or more miles (10+ km)
Ceiling: at least 12,000 feet AGL
Clouds: sky clear below 12,000 feet AGL
Weather: no significant weather observed at this time

METAR text: UHWW 171430Z VRB01MPS 9999 NSC M12/M17 Q1019 R25L/0///70 NOSIG RMK QFE763
Conditions at: UHWW (VLADIVOSTOK , RU) observed 1430 UTC 17 February 2019
Temperature: -12.0°C (10°F)
Dewpoint: -17.0°C ( 1°F) [RH = 66%]
Pressure (altimeter): 30.09 inches Hg (1019.0 mb)
Winds: variable direction winds at 2 MPH (2 knots; 1.0 m/s)
Visibility: 6 or more miles (10+ km)
Ceiling: at least 12,000 feet AGL
Clouds: sky clear below 12,000 feet AGL
Weather: no significant weather observed at this time

METAR text: UHWW 171400Z 26002MPS 9999 NSC M12/M18 Q1019 R25L/0///70 NOSIG RMK QFE763
Conditions at: UHWW (VLADIVOSTOK , RU) observed 1400 UTC 17 February 2019
Temperature: -12.0°C (10°F)
Dewpoint: -18.0°C (-0°F) [RH = 61%]
Pressure (altimeter): 30.09 inches Hg (1019.0 mb)
Winds: from the W (260 degrees) at 5 MPH (4 knots; 2.1 m/s)
Visibility: 6 or more miles (10+ km)
Ceiling: at least 12,000 feet AGL
Clouds: sky clear below 12,000 feet AGL
Weather: no significant weather observed at this time

METAR text: UHWW 171330Z VRB01MPS 9000 NSC M10/M16 Q1019 R25L/0///70 NOSIG RMK QFE763
Conditions at: UHWW (VLADIVOSTOK , RU) observed 1330 UTC 17 February 2019
Temperature: -10.0°C (14°F)
Dewpoint: -16.0°C ( 3°F) [RH = 61%]
Pressure (altimeter): 30.09 inches Hg (1019.0 mb)
Winds: variable direction winds at 2 MPH (2 knots; 1.0 m/s)
Visibility: 6 miles ( 9 km)
Ceiling: at least 12,000 feet AGL
Clouds: sky clear below 12,000 feet AGL
Weather: no significant weather observed at this time

METAR text: UHWW 171300Z 07001MPS 9000 NSC M10/M16 Q1018 R25L/0///70 NOSIG RMK QFE762
Conditions at: UHWW (VLADIVOSTOK , RU) observed 1300 UTC 17 February 2019
Temperature: -10.0°C (14°F)
Dewpoint: -16.0°C ( 3°F) [RH = 61%]
Pressure (altimeter): 30.06 inches Hg (1018.0 mb)
Winds: from the ENE (70 degrees) at 2 MPH (2 knots; 1.0 m/s)
Visibility: 6 miles ( 9 km)
Ceiling: at least 12,000 feet AGL
Clouds: sky clear below 12,000 feet AGL
Weather: no significant weather observed at this time

METAR text: UHWW 171230Z 10001MPS 9999 NSC M09/M15 Q1018 R25L/0///70 NOSIG RMK QFE762
Conditions at: UHWW (VLADIVOSTOK , RU) observed 1230 UTC 17 February 2019
Temperature: -9.0°C (16°F)
Dewpoint: -15.0°C ( 5°F) [RH = 62%]
Pressure (altimeter): 30.06 inches Hg (1018.0 mb)
Winds: from the E (100 degrees) at 2 MPH (2 knots; 1.0 m/s)
Visibility: 6 or more miles (10+ km)
Ceiling: at least 12,000 feet AGL
Clouds: sky clear below 12,000 feet AGL
Weather: no significant weather observed at this time

METAR text: UHWW 171200Z 36001MPS 9999 NSC M08/M15 Q1017 R25L/0///70 NOSIG RMK QFE761
Conditions at: UHWW (VLADIVOSTOK , RU) observed 1200 UTC 17 February 2019
Temperature: -8.0°C (18°F)
Dewpoint: -15.0°C ( 5°F) [RH = 57%]
Pressure (altimeter): 30.03 inches Hg (1017.0 mb)
Winds: from the N (360 degrees) at 2 MPH (2 knots; 1.0 m/s)
Visibility: 6 or more miles (10+ km)
Ceiling: at least 12,000 feet AGL
Clouds: sky clear below 12,000 feet AGL
Weather: no significant weather observed at this time

METAR text: UHWW 171130Z 00000MPS 9999 NSC M07/M15 Q1016 R25L/0///70 NOSIG RMK QFE761
Conditions at: UHWW (VLADIVOSTOK , RU) observed 1130 UTC 17 February 2019
Temperature: -7.0°C (19°F)
Dewpoint: -15.0°C ( 5°F) [RH = 53%]
Pressure (altimeter): 30.00 inches Hg (1016.0 mb)
Winds: calm
Visibility: 6 or more miles (10+ km)
Ceiling: at least 12,000 feet AGL
Clouds: sky clear below 12,000 feet AGL
Weather: no significant weather observed at this time

METAR text: UHWW 171100Z VRB01MPS 9999 NSC M07/M15 Q1016 R25L/0///70 NOSIG RMK QFE761
Conditions at: UHWW (VLADIVOSTOK , RU) observed 1100 UTC 17 February 2019
Temperature: -7.0°C (19°F)
Dewpoint: -15.0°C ( 5°F) [RH = 53%]
Pressure (altimeter): 30.00 inches Hg (1016.0 mb)
Winds: variable direction winds at 2 MPH (2 knots; 1.0 m/s)
Visibility: 6 or more miles (10+ km)
Ceiling: at least 12,000 feet AGL
Clouds: sky clear below 12,000 feet AGL
Weather: no significant weather observed at this time

METAR text: UHWW 171030Z 00000MPS 9999 NSC M05/M14 Q1016 R25L/0///70 NOSIG RMK QFE761
Conditions at: UHWW (VLADIVOSTOK , RU) observed 1030 UTC 17 February 2019
Temperature: -5.0°C (23°F)
Dewpoint: -14.0°C ( 7°F) [RH = 49%]
Pressure (altimeter): 30.00 inches Hg (1016.0 mb)
Winds: calm
Visibility: 6 or more miles (10+ km)
Ceiling: at least 12,000 feet AGL
Clouds: sky clear below 12,000 feet AGL
Weather: no significant weather observed at this time

METAR text: UHWW 171000Z 36002MPS 340V050 9999 NSC M04/M14 Q1015 R25L/0///70 NOSIG RMK QFE760
Conditions at: UHWW (VLADIVOSTOK , RU) observed 1000 UTC 17 February 2019
Temperature: -4.0°C (25°F)
Dewpoint: -14.0°C ( 7°F) [RH = 46%]
Pressure (altimeter): 29.97 inches Hg (1015.0 mb)
Winds: from the N (360 degrees) at 5 MPH (4 knots; 2.1 m/s)
Visibility: 6 or more miles (10+ km)
Ceiling: at least 12,000 feet AGL
Clouds: sky clear below 12,000 feet AGL
Weather: no significant weather observed at this time

METAR text: UHWW 170930Z 10003MPS 9999 NSC M03/M13 Q1015 R25L/0///70 NOSIG RMK QFE760
Conditions at: UHWW (VLADIVOSTOK , RU) observed 0930 UTC 17 February 2019
Temperature: -3.0°C (27°F)
Dewpoint: -13.0°C ( 9°F) [RH = 46%]
Pressure (altimeter): 29.97 inches Hg (1015.0 mb)
Winds: from the E (100 degrees) at 7 MPH (6 knots; 3.1 m/s)
Visibility: 6 or more miles (10+ km)
Ceiling: at least 12,000 feet AGL
Clouds: sky clear below 12,000 feet AGL
Weather: no significant weather observed at this time

METAR text: UHWW 170900Z 08003MPS 9999 NSC M04/M13 Q1014 R25L/0///70 NOSIG RMK QFE759
Conditions at: UHWW (VLADIVOSTOK , RU) observed 0900 UTC 17 February 2019
Temperature: -4.0°C (25°F)
Dewpoint: -13.0°C ( 9°F) [RH = 50%]
Pressure (altimeter): 29.94 inches Hg (1014.0 mb)
Winds: from the E (80 degrees) at 7 MPH (6 knots; 3.1 m/s)
Visibility: 6 or more miles (10+ km)
Ceiling: at least 12,000 feet AGL
Clouds: sky clear below 12,000 feet AGL
Weather: no significant weather observed at this time

METAR text: UHWW 170830Z 07002MPS 9999 NSC M01/M14 Q1014 R25L/0///70 NOSIG RMK QFE759
Conditions at: UHWW (VLADIVOSTOK , RU) observed 0830 UTC 17 February 2019
Temperature: -1.0°C (30°F)
Dewpoint: -14.0°C ( 7°F) [RH = 37%]
Pressure (altimeter): 29.94 inches Hg (1014.0 mb)
Winds: from the ENE (70 degrees) at 5 MPH (4 knots; 2.1 m/s)
Visibility: 6 or more miles (10+ km)
Ceiling: at least 12,000 feet AGL
Clouds: sky clear below 12,000 feet AGL
Weather: no significant weather observed at this time

METAR text: UHWW 170800Z 24002MPS 9999 NSC 03/M16 Q1014 R25L/0///70 NOSIG RMK QFE759
Conditions at: UHWW (VLADIVOSTOK , RU) observed 0800 UTC 17 February 2019
Temperature: 3.0°C (37°F)
Dewpoint: -16.0°C ( 3°F) [RH = 23%]
Pressure (altimeter): 29.94 inches Hg (1014.0 mb)
Winds: from the WSW (240 degrees) at 5 MPH (4 knots; 2.1 m/s)
Visibility: 6 or more miles (10+ km)
Ceiling: at least 12,000 feet AGL
Clouds: sky clear below 12,000 feet AGL
Weather: no significant weather observed at this time

METAR text: UHWW 170730Z 23004MPS 9999 NSC 03/M18 Q1013 R25L/0///70 NOSIG RMK QFE759
Conditions at: UHWW (VLADIVOSTOK , RU) observed 0730 UTC 17 February 2019
Temperature: 3.0°C (37°F)
Dewpoint: -18.0°C (-0°F) [RH = 20%]
Pressure (altimeter): 29.91 inches Hg (1013.0 mb)
Winds: from the SW (230 degrees) at 9 MPH (8 knots; 4.1 m/s)
Visibility: 6 or more miles (10+ km)
Ceiling: at least 12,000 feet AGL
Clouds: sky clear below 12,000 feet AGL
Weather: no significant weather observed at this time

METAR text: UHWW 170700Z 24006MPS 9999 NSC 03/M18 Q1013 R25L/0///70 NOSIG RMK QFE759
Conditions at: UHWW (VLADIVOSTOK , RU) observed 0700 UTC 17 February 2019
Temperature: 3.0°C (37°F)
Dewpoint: -18.0°C (-0°F) [RH = 20%]
Pressure (altimeter): 29.91 inches Hg (1013.0 mb)
Winds: from the WSW (240 degrees) at 14 MPH (12 knots; 6.2 m/s)
Visibility: 6 or more miles (10+ km)
Ceiling: at least 12,000 feet AGL
Clouds: sky clear below 12,000 feet AGL
Weather: no significant weather observed at this time

METAR text: UHWW 170630Z 23006MPS 9999 NSC 03/M19 Q1013 R25L/0///70 NOSIG RMK QFE759
Conditions at: UHWW (VLADIVOSTOK , RU) observed 0630 UTC 17 February 2019
Temperature: 3.0°C (37°F)
Dewpoint: -19.0°C (-2°F) [RH = 18%]
Pressure (altimeter): 29.91 inches Hg (1013.0 mb)
Winds: from the SW (230 degrees) at 14 MPH (12 knots; 6.2 m/s)
Visibility: 6 or more miles (10+ km)
Ceiling: at least 12,000 feet AGL
Clouds: sky clear below 12,000 feet AGL
Weather: no significant weather observed at this time

METAR text: UHWW 170600Z 24006MPS 9999 NSC 04/M18 Q1013 R25L/0///70 NOSIG RMK QFE759
Conditions at: UHWW (VLADIVOSTOK , RU) observed 0600 UTC 17 February 2019
Temperature: 4.0°C (39°F)
Dewpoint: -18.0°C (-0°F) [RH = 18%]
Pressure (altimeter): 29.91 inches Hg (1013.0 mb)
Winds: from the WSW (240 degrees) at 14 MPH (12 knots; 6.2 m/s)
Visibility: 6 or more miles (10+ km)
Ceiling: at least 12,000 feet AGL
Clouds: sky clear below 12,000 feet AGL
Weather: no significant weather observed at this time

METAR text: UHWW 170530Z 23005MPS 9999 NSC 03/M19 Q1013 R25L/0///70 NOSIG RMK QFE759
Conditions at: UHWW (VLADIVOSTOK , RU) observed 0530 UTC 17 February 2019
Temperature: 3.0°C (37°F)
Dewpoint: -19.0°C (-2°F) [RH = 18%]
Pressure (altimeter): 29.91 inches Hg (1013.0 mb)
Winds: from the SW (230 degrees) at 12 MPH (10 knots; 5.1 m/s)
Visibility: 6 or more miles (10+ km)
Ceiling: at least 12,000 feet AGL
Clouds: sky clear below 12,000 feet AGL
Weather: no significant weather observed at this time

METAR text: UHWW 170500Z 24005MPS 9999 NSC 04/M18 Q1014 R25L/0///70 NOSIG RMK QFE759
Conditions at: UHWW (VLADIVOSTOK , RU) observed 0500 UTC 17 February 2019
Temperature: 4.0°C (39°F)
Dewpoint: -18.0°C (-0°F) [RH = 18%]
Pressure (altimeter): 29.94 inches Hg (1014.0 mb)
Winds: from the WSW (240 degrees) at 12 MPH (10 knots; 5.1 m/s)
Visibility: 6 or more miles (10+ km)
Ceiling: at least 12,000 feet AGL
Clouds: sky clear below 12,000 feet AGL
Weather: no significant weather observed at this time

METAR text: UHWW 170430Z 24004MPS 9999 NSC 03/M19 Q1014 R25L/0///70 NOSIG RMK QFE759
Conditions at: UHWW (VLADIVOSTOK , RU) observed 0430 UTC 17 February 2019
Temperature: 3.0°C (37°F)
Dewpoint: -19.0°C (-2°F) [RH = 18%]
Pressure (altimeter): 29.94 inches Hg (1014.0 mb)
Winds: from the WSW (240 degrees) at 9 MPH (8 knots; 4.1 m/s)
Visibility: 6 or more miles (10+ km)
Ceiling: at least 12,000 feet AGL
Clouds: sky clear below 12,000 feet AGL
Weather: no significant weather observed at this time

METAR text: UHWW 170400Z 24002MPS 200V280 9999 NSC 03/M19 Q1014 R25L/0///70 NOSIG RMK QFE760
Conditions at: UHWW (VLADIVOSTOK , RU) observed 0400 UTC 17 February 2019
Temperature: 3.0°C (37°F)
Dewpoint: -19.0°C (-2°F) [RH = 18%]
Pressure (altimeter): 29.94 inches Hg (1014.0 mb)
Winds: from the WSW (240 degrees) at 5 MPH (4 knots; 2.1 m/s)
Visibility: 6 or more miles (10+ km)
Ceiling: at least 12,000 feet AGL
Clouds: sky clear below 12,000 feet AGL
Weather: no significant weather observed at this time

METAR text: UHWW 170330Z 22002MPS 160V270 9999 NSC 02/M19 Q1015 R25L/0///70 NOSIG RMK QFE760
Conditions at: UHWW (VLADIVOSTOK , RU) observed 0330 UTC 17 February 2019
Temperature: 2.0°C (36°F)
Dewpoint: -19.0°C (-2°F) [RH = 19%]
Pressure (altimeter): 29.97 inches Hg (1015.0 mb)
Winds: from the SW (220 degrees) at 5 MPH (4 knots; 2.1 m/s)
Visibility: 6 or more miles (10+ km)
Ceiling: at least 12,000 feet AGL
Clouds: sky clear below 12,000 feet AGL
Weather: no significant weather observed at this time

METAR text: UHWW 170300Z 23002MPS 9999 NSC 01/M19 Q1016 R25L/0///70 NOSIG RMK QFE761
Conditions at: UHWW (VLADIVOSTOK , RU) observed 0300 UTC 17 February 2019
Temperature: 1.0°C (34°F)
Dewpoint: -19.0°C (-2°F) [RH = 21%]
Pressure (altimeter): 30.00 inches Hg (1016.0 mb)
Winds: from the SW (230 degrees) at 5 MPH (4 knots; 2.1 m/s)
Visibility: 6 or more miles (10+ km)
Ceiling: at least 12,000 feet AGL
Clouds: sky clear below 12,000 feet AGL
Weather: no significant weather observed at this time

METAR text: UHWW 170230Z VRB02MPS 9999 NSC 00/M19 Q1016 R25L/0///70 NOSIG RMK QFE761
Conditions at: UHWW (VLADIVOSTOK , RU) observed 0230 UTC 17 February 2019
Temperature: 0.0°C (32°F)
Dewpoint: -19.0°C (-2°F) [RH = 22%]
Pressure (altimeter): 30.00 inches Hg (1016.0 mb)
Winds: variable direction winds at 5 MPH (4 knots; 2.1 m/s)
Visibility: 6 or more miles (10+ km)
Ceiling: at least 12,000 feet AGL
Clouds: sky clear below 12,000 feet AGL
Weather: no significant weather observed at this time

METAR text: UHWW 170200Z 13002MPS 9999 NSC M01/M19 Q1016 R25L/0///70 NOSIG RMK QFE761
Conditions at: UHWW (VLADIVOSTOK , RU) observed 0200 UTC 17 February 2019
Temperature: -1.0°C (30°F)
Dewpoint: -19.0°C (-2°F) [RH = 24%]
Pressure (altimeter): 30.00 inches Hg (1016.0 mb)
Winds: from the SE (130 degrees) at 5 MPH (4 knots; 2.1 m/s)
Visibility: 6 or more miles (10+ km)
Ceiling: at least 12,000 feet AGL
Clouds: sky clear below 12,000 feet AGL
Weather: no significant weather observed at this time

METAR text: UHWW 170130Z VRB01MPS 9999 NSC M02/M19 Q1017 R25L/0///70 NOSIG RMK QFE761
Conditions at: UHWW (VLADIVOSTOK , RU) observed 0130 UTC 17 February 2019
Temperature: -2.0°C (28°F)
Dewpoint: -19.0°C (-2°F) [RH = 26%]
Pressure (altimeter): 30.03 inches Hg (1017.0 mb)
Winds: variable direction winds at 2 MPH (2 knots; 1.0 m/s)
Visibility: 6 or more miles (10+ km)
Ceiling: at least 12,000 feet AGL
Clouds: sky clear below 12,000 feet AGL
Weather: no significant weather observed at this time

METAR text: UHWW 170100Z 00000MPS 9999 NSC M04/M18 Q1017 R25L/0///70 NOSIG RMK QFE761
Conditions at: UHWW (VLADIVOSTOK , RU) observed 0100 UTC 17 February 2019
Temperature: -4.0°C (25°F)
Dewpoint: -18.0°C (-0°F) [RH = 33%]
Pressure (altimeter): 30.03 inches Hg (1017.0 mb)
Winds: calm
Visibility: 6 or more miles (10+ km)
Ceiling: at least 12,000 feet AGL
Clouds: sky clear below 12,000 feet AGL
Weather: no significant weather observed at this time

METAR text: UHWW 170030Z 00000MPS 9999 NSC M06/M17 Q1017 R25L/0///70 NOSIG RMK QFE762
Conditions at: UHWW (VLADIVOSTOK , RU) observed 0030 UTC 17 February 2019
Temperature: -6.0°C (21°F)
Dewpoint: -17.0°C ( 1°F) [RH = 41%]
Pressure (altimeter): 30.03 inches Hg (1017.0 mb)
Winds: calm
Visibility: 6 or more miles (10+ km)
Ceiling: at least 12,000 feet AGL
Clouds: sky clear below 12,000 feet AGL
Weather: no significant weather observed at this time

METAR text: UHWW 170000Z 00000MPS 9999 NSC M10/M17 Q1017 R25L/0///70 NOSIG RMK QFE762
Conditions at: UHWW (VLADIVOSTOK , RU) observed 0000 UTC 17 February 2019
Temperature: -10.0°C (14°F)
Dewpoint: -17.0°C ( 1°F) [RH = 57%]
Pressure (altimeter): 30.03 inches Hg (1017.0 mb)
Winds: calm
Visibility: 6 or more miles (10+ km)
Ceiling: at least 12,000 feet AGL
Clouds: sky clear below 12,000 feet AGL
Weather: no significant weather observed at this time

METAR text: UHWW 162330Z 00000MPS 9999 NSC M13/M19 Q1017 R25L/0///70 NOSIG RMK QFE762
Conditions at: UHWW (VLADIVOSTOK , RU) observed 2330 UTC 16 February 2019
Temperature: -13.0°C ( 9°F)
Dewpoint: -19.0°C (-2°F) [RH = 61%]
Pressure (altimeter): 30.03 inches Hg (1017.0 mb)
Winds: calm
Visibility: 6 or more miles (10+ km)
Ceiling: at least 12,000 feet AGL
Clouds: sky clear below 12,000 feet AGL
Weather: no significant weather observed at this time

METAR text: UHWW 162300Z 05001MPS 9999 NSC M17/M22 Q1017 R25L/0///70 NOSIG RMK QFE761
Conditions at: UHWW (VLADIVOSTOK , RU) observed 2300 UTC 16 February 2019
Temperature: -17.0°C ( 1°F)
Dewpoint: -22.0°C (-8°F) [RH = 65%]
Pressure (altimeter): 30.03 inches Hg (1017.0 mb)
Winds: from the NE (50 degrees) at 2 MPH (2 knots; 1.0 m/s)
Visibility: 6 or more miles (10+ km)
Ceiling: at least 12,000 feet AGL
Clouds: sky clear below 12,000 feet AGL
Weather: no significant weather observed at this time

METAR text: UHWW 162230Z 00000MPS 9999 NSC M16/M21 Q1017 R25L/0///70 NOSIG RMK QFE761
Conditions at: UHWW (VLADIVOSTOK , RU) observed 2230 UTC 16 February 2019
Temperature: -16.0°C ( 3°F)
Dewpoint: -21.0°C (-6°F) [RH = 65%]
Pressure (altimeter): 30.03 inches Hg (1017.0 mb)
Winds: calm
Visibility: 6 or more miles (10+ km)
Ceiling: at least 12,000 feet AGL
Clouds: sky clear below 12,000 feet AGL
Weather: no significant weather observed at this time

METAR text: UHWW 162200Z 34001MPS 9999 NSC M18/M23 Q1016 R25L/0///70 NOSIG RMK QFE761
Conditions at: UHWW (VLADIVOSTOK , RU) observed 2200 UTC 16 February 2019
Temperature: -18.0°C (-0°F)
Dewpoint: -23.0°C (-9°F) [RH = 65%]
Pressure (altimeter): 30.00 inches Hg (1016.0 mb)
Winds: from the NNW (340 degrees) at 2 MPH (2 knots; 1.0 m/s)
Visibility: 6 or more miles (10+ km)
Ceiling: at least 12,000 feet AGL
Clouds: sky clear below 12,000 feet AGL
Weather: no significant weather observed at this time

METAR text: UHWW 162130Z 15001MPS 9999 NSC M13/M22 Q1016 R25L/0///70 NOSIG RMK QFE761
Conditions at: UHWW (VLADIVOSTOK , RU) observed 2130 UTC 16 February 2019
Temperature: -13.0°C ( 9°F)
Dewpoint: -22.0°C (-8°F) [RH = 47%]
Pressure (altimeter): 30.00 inches Hg (1016.0 mb)
Winds: from the SSE (150 degrees) at 2 MPH (2 knots; 1.0 m/s)
Visibility: 6 or more miles (10+ km)
Ceiling: at least 12,000 feet AGL
Clouds: sky clear below 12,000 feet AGL
Weather: no significant weather observed at this time

METAR text: UHWW 162100Z 24002MPS 9999 NSC M13/M21 Q1016 R25L/0///70 NOSIG RMK QFE761
Conditions at: UHWW (VLADIVOSTOK , RU) observed 2100 UTC 16 February 2019
Temperature: -13.0°C ( 9°F)
Dewpoint: -21.0°C (-6°F) [RH = 51%]
Pressure (altimeter): 30.00 inches Hg (1016.0 mb)
Winds: from the WSW (240 degrees) at 5 MPH (4 knots; 2.1 m/s)
Visibility: 6 or more miles (10+ km)
Ceiling: at least 12,000 feet AGL
Clouds: sky clear below 12,000 feet AGL
Weather: no significant weather observed at this time

METAR text: UHWW 162030Z 25002MPS 9999 NSC M14/M21 Q1016 R25L/0///70 NOSIG RMK QFE761
Conditions at: UHWW (VLADIVOSTOK , RU) observed 2030 UTC 16 February 2019
Temperature: -14.0°C ( 7°F)
Dewpoint: -21.0°C (-6°F) [RH = 55%]
Pressure (altimeter): 30.00 inches Hg (1016.0 mb)
Winds: from the WSW (250 degrees) at 5 MPH (4 knots; 2.1 m/s)
Visibility: 6 or more miles (10+ km)
Ceiling: at least 12,000 feet AGL
Clouds: sky clear below 12,000 feet AGL
Weather: no significant weather observed at this time

METAR text: UHWW 162000Z 25002MPS 9999 NSC M13/M21 Q1016 R25L/0///70 NOSIG RMK QFE761
Conditions at: UHWW (VLADIVOSTOK , RU) observed 2000 UTC 16 February 2019
Temperature: -13.0°C ( 9°F)
Dewpoint: -21.0°C (-6°F) [RH = 51%]
Pressure (altimeter): 30.00 inches Hg (1016.0 mb)
Winds: from the WSW (250 degrees) at 5 MPH (4 knots; 2.1 m/s)
Visibility: 6 or more miles (10+ km)
Ceiling: at least 12,000 feet AGL
Clouds: sky clear below 12,000 feet AGL
Weather: no significant weather observed at this time

Forecast for: UHWW (VLADIVOSTOK , RU)
Text: TAF UHWW 180500Z 1806/1906 20003MPS 9999 SCT030
Forecast period: 0600 to 1000 UTC 18 February 2019
Forecast type: FROM: standard forecast or significant change
Winds: from the SSW (200 degrees) at 7 MPH (6 knots; 3.1 m/s)
Visibility: 6 or more miles 10+ km)
Ceiling: at least 12,000 feet AGL
Clouds: scattered clouds at 3000 feet AGL
Weather: no significant weather forecast for this period
Text: BECMG 1810/1812 3500 HZ BKN020
Forecast period: 1000 UTC 18 February 2019 to 0600 UTC 19 February 2019
Forecast type: BECOMING: Conditions expected to become as follows by 1200 UTC 18 February 2019
Winds: from the SSW (200 degrees) at 7 MPH (6 knots; 3.1 m/s)
Visibility: 2.17 miles (3.49 km)
Ceiling: 2000 feet AGL
Clouds: broken clouds at 2000 feet AGL
Weather: HZ  (haze)